Time;durP1;ratioP1;P1;durP2;ratioP2;P2;SDS_P1;SDS_P2;PMS_P1;PMS_P2;Temp;Humidity;BMP_temperature;BMP_pressure;BME280_temperature;BME280_humidity;BME280_pressure;Samples;Min_cycle;Max_cycle;Signal;HPM_P1;HPM_P2
2021/03/23 00:04:02;;;;;;;5.32;3.08;;;;;;;-0.36;100.00;94133.09;10476252;28;618299;-82
2021/03/23 00:09:05;;;;;;;6.97;3.83;;;;;;;-0.36;100.00;94133.09;10498334;28;20509;-83
2021/03/23 00:14:09;;;;;;;7.93;4.80;;;;;;;-0.71;100.00;94136.28;10499765;28;20060;-83
2021/03/23 00:19:10;;;;;;;14.80;5.68;;;;;;;-0.87;100.00;94138.44;10497923;28;20027;-83
2021/03/23 00:24:11;;;;;;;8.57;5.18;;;;;;;-0.89;100.00;94150.25;10498185;28;20031;-82
2021/03/23 00:29:12;;;;;;;9.57;6.20;;;;;;;-1.04;100.00;94147.94;10494187;28;20024;-80
2021/03/23 00:34:12;;;;;;;8.80;5.43;;;;;;;-1.00;100.00;94153.59;10487240;28;20032;-81
2021/03/23 00:39:13;;;;;;;12.33;6.93;;;;;;;-0.97;100.00;94161.06;10495137;28;20024;-81
2021/03/23 00:44:14;;;;;;;9.13;5.30;;;;;;;-0.92;100.00;94163.84;10494430;28;20028;-80
2021/03/23 00:49:15;;;;;;;10.15;5.97;;;;;;;-0.96;100.00;94166.13;10473934;28;20035;-81
2021/03/23 00:54:16;;;;;;;10.83;7.03;;;;;;;-1.02;100.00;94168.81;10455233;28;20025;-82
2021/03/23 00:59:16;;;;;;;12.23;6.03;;;;;;;-1.05;100.00;94165.59;10456226;28;20279;-82
2021/03/23 01:04:17;;;;;;;9.23;5.73;;;;;;;-1.06;100.00;94177.16;10454286;28;20076;-81
2021/03/23 01:09:17;;;;;;;9.05;5.43;;;;;;;-0.86;100.00;94176.19;10454516;28;20289;-82
2021/03/23 01:14:18;;;;;;;10.57;6.07;;;;;;;-1.00;100.00;94178.13;10454343;28;20506;-81
2021/03/23 01:19:18;;;;;;;12.47;6.70;;;;;;;-1.03;100.00;94181.19;10453766;28;20649;-86
2021/03/23 01:24:19;;;;;;;11.33;6.40;;;;;;;-1.08;100.00;94170.47;10466649;28;20274;-83
2021/03/23 01:29:20;;;;;;;8.57;5.40;;;;;;;-1.13;100.00;94160.56;10474003;28;20048;-83
2021/03/23 01:34:20;;;;;;;11.68;6.55;;;;;;;-1.13;100.00;94168.50;10473790;28;20056;-84
2021/03/23 01:39:21;;;;;;;11.48;7.03;;;;;;;-1.21;100.00;94166.13;10469674;28;20032;-83
2021/03/23 01:44:34;;;;;;;14.27;7.70;;;;;;;-1.28;100.00;94174.06;10473753;28;20024;-83
2021/03/23 01:49:39;;;;;;;14.38;8.07;;;;;;;-1.16;100.00;94174.16;10473751;28;20376;-83
2021/03/23 01:55:01;;;;;;;14.23;7.25;;;;;;;-0.99;100.00;94182.38;10474205;28;20028;-83
2021/03/23 02:00:09;;;;;;;14.25;7.40;;;;;;;-1.17;100.00;94188.41;10488021;28;20071;-83
2021/03/23 02:05:19;;;;;;;12.73;7.57;;;;;;;-1.01;100.00;94184.41;10496093;28;20535;-83
2021/03/23 02:10:20;;;;;;;12.50;7.75;;;;;;;-0.91;100.00;94171.56;10472267;28;20058;-83
2021/03/23 02:15:23;;;;;;;15.10;8.63;;;;;;;-1.02;100.00;94172.25;10456257;28;20033;-82
2021/03/23 02:20:24;;;;;;;14.85;9.20;;;;;;;-1.00;100.00;94182.59;10454007;28;20024;-82
2021/03/23 02:25:25;;;;;;;14.65;7.97;;;;;;;-1.02;100.00;94182.78;10453696;28;20035;-82
2021/03/23 02:30:33;;;;;;;11.25;7.28;;;;;;;-1.10;100.00;94186.50;10451811;28;20505;-82
2021/03/23 02:35:36;;;;;;;12.50;6.90;;;;;;;-1.06;100.00;94179.78;10453428;28;20036;-82
2021/03/23 02:40:36;;;;;;;12.43;7.22;;;;;;;-0.88;100.00;94183.50;10451933;28;20025;-83
2021/03/23 02:45:38;;;;;;;12.75;7.13;;;;;;;-0.95;100.00;94183.56;10453040;28;20396;-83
2021/03/23 02:50:39;;;;;;;12.88;7.50;;;;;;;-1.15;100.00;94182.91;10451690;28;20451;-84
2021/03/23 02:55:39;;;;;;;13.63;8.07;;;;;;;-1.13;100.00;94188.75;10451756;28;20039;-83
2021/03/23 03:00:40;;;;;;;9.37;5.97;;;;;;;-1.09;100.00;94192.59;10451467;28;20040;-83
2021/03/23 03:05:40;;;;;;;12.60;7.32;;;;;;;-1.00;100.00;94183.41;10452802;28;20295;-83
2021/03/23 03:10:41;;;;;;;11.57;6.25;;;;;;;-1.00;100.00;94190.50;10452592;28;20037;-81
2021/03/23 03:15:42;;;;;;;14.85;7.53;;;;;;;-0.70;100.00;94196.75;10450793;28;20036;-82
2021/03/23 03:20:42;;;;;;;13.43;8.02;;;;;;;-0.78;100.00;94194.38;10452821;28;20037;-83
2021/03/23 03:25:43;;;;;;;16.42;8.00;;;;;;;-0.91;100.00;94205.03;10452562;28;20483;-82
2021/03/23 03:30:43;;;;;;;14.07;7.88;;;;;;;-0.92;100.00;94209.50;10450784;28;20071;-83
2021/03/23 03:35:45;;;;;;;15.55;8.15;;;;;;;-0.89;100.00;94217.00;10450965;28;20033;-83
2021/03/23 03:40:53;;;;;;;14.00;9.27;;;;;;;-0.89;100.00;94218.84;10452002;28;20037;-83
2021/03/23 03:45:54;;;;;;;13.47;7.83;;;;;;;-0.84;100.00;94221.63;10456002;28;20070;-83
2021/03/23 03:50:55;;;;;;;13.50;7.43;;;;;;;-0.72;100.00;94217.25;10453105;28;20029;-83
2021/03/23 03:55:56;;;;;;;13.43;7.45;;;;;;;-0.69;100.00;94213.38;10453506;28;20478;-83
2021/03/23 04:00:57;;;;;;;15.10;7.88;;;;;;;-0.61;100.00;94221.03;10457262;28;20037;-83
2021/03/23 04:05:58;;;;;;;11.57;7.75;;;;;;;-0.72;100.00;94219.91;10458748;28;20423;-83
2021/03/23 04:11:02;;;;;;;15.32;8.65;;;;;;;-0.75;100.00;94214.25;10457459;28;20029;-83
2021/03/23 04:16:03;;;;;;;14.82;8.82;;;;;;;-0.72;100.00;94216.47;10453931;28;20104;-83
2021/03/23 04:21:05;;;;;;;21.58;9.57;;;;;;;-0.98;100.00;94228.81;10451826;28;20032;-82
2021/03/23 04:26:07;;;;;;;20.60;10.50;;;;;;;-1.09;100.00;94232.97;10456807;28;20057;-82
2021/03/23 04:31:15;;;;;;;19.83;10.77;;;;;;;-1.11;100.00;94253.44;10455793;28;20490;-81
2021/03/23 04:36:17;;;;;;;20.50;11.03;;;;;;;-1.07;100.00;94246.72;10456341;28;20120;-82
2021/03/23 04:41:17;;;;;;;29.70;11.63;;;;;;;-1.00;100.00;94254.59;10455902;28;20036;-82
2021/03/23 04:46:24;;;;;;;20.48;11.98;;;;;;;-1.06;100.00;94266.00;10457074;28;20024;-82
2021/03/23 04:51:28;;;;;;;22.05;10.88;;;;;;;-0.97;100.00;94270.00;10456746;28;20029;-82
2021/03/23 04:56:40;;;;;;;24.80;12.43;;;;;;;-0.76;100.00;94273.31;10455313;28;20025;-81
2021/03/23 05:01:40;;;;;;;30.17;18.27;;;;;;;-0.70;100.00;94270.63;10454936;28;20021;-82
2021/03/23 05:06:42;;;;;;;27.67;14.25;;;;;;;-0.63;100.00;94281.13;10455855;28;20056;-82
2021/03/23 05:11:42;;;;;;;25.92;14.40;;;;;;;-0.65;100.00;94277.09;10486330;28;20060;-81
2021/03/23 05:16:42;;;;;;;24.80;13.55;;;;;;;-0.74;100.00;94280.00;10495206;28;20055;-81
2021/03/23 05:21:43;;;;;;;29.47;15.33;;;;;;;-0.59;100.00;94274.41;10487716;28;20033;-82
2021/03/23 05:26:43;;;;;;;27.50;14.47;;;;;;;-0.55;100.00;94280.06;10454813;28;20688;-82
2021/03/23 05:31:43;;;;;;;33.73;15.33;;;;;;;-0.39;100.00;94286.63;10489244;28;20608;-82
2021/03/23 05:36:44;;;;;;;22.93;12.53;;;;;;;-0.45;100.00;94276.94;10479374;28;20052;-80
2021/03/23 05:42:12;;;;;;;26.55;13.25;;;;;;;-0.33;100.00;94280.50;10445695;28;20302;-78
2021/03/23 05:47:15;;;;;;;22.58;12.10;;;;;;;0.00;100.00;94284.69;10458453;28;20081;-78
2021/03/23 05:52:31;;;;;;;26.15;14.32;;;;;;;-0.01;100.00;94278.56;10487336;28;20029;-78
2021/03/23 05:57:36;;;;;;;20.20;12.27;;;;;;;0.15;100.00;94293.06;10486899;28;20032;-79
2021/03/23 06:02:43;;;;;;;19.40;9.68;;;;;;;0.30;100.00;94297.97;10487365;28;20055;-78
2021/03/23 06:07:44;;;;;;;18.90;8.55;;;;;;;0.41;100.00;94306.22;10476481;28;20061;-77
2021/03/23 06:12:51;;;;;;;20.33;10.38;;;;;;;0.57;100.00;94307.44;10454986;28;20483;-78
2021/03/23 06:18:26;;;;;;;13.60;8.23;;;;;;;0.62;100.00;94311.03;10485260;28;20033;-77
2021/03/23 06:24:00;;;;;;;16.58;9.32;;;;;;;0.71;100.00;94321.31;10478140;28;20205;-78
2021/03/23 06:29:20;;;;;;;16.95;8.10;;;;;;;0.66;100.00;94316.72;10485963;28;20710;-79
2021/03/23 06:34:26;;;;;;;16.75;9.02;;;;;;;1.09;100.00;94321.06;10485017;28;20033;-78
2021/03/23 06:39:31;;;;;;;12.18;7.35;;;;;;;1.17;100.00;94327.84;10470662;28;20470;-78
2021/03/23 06:44:38;;;;;;;14.80;7.35;;;;;;;1.28;100.00;94332.38;10446436;28;20035;-79
2021/03/23 06:49:38;;;;;;;13.95;7.22;;;;;;;1.23;100.00;94326.16;10445019;28;20389;-77
2021/03/23 06:54:40;;;;;;;11.98;7.90;;;;;;;1.60;100.00;94331.34;10445787;28;20036;-78
2021/03/23 06:59:59;;;;;;;10.45;6.38;;;;;;;1.68;100.00;94341.59;10445647;28;20102;-79
2021/03/23 07:05:25;;;;;;;13.85;6.60;;;;;;;1.85;100.00;94352.34;10443223;28;20051;-78
2021/03/23 07:10:29;;;;;;;15.00;8.20;;;;;;;1.92;100.00;94349.59;10444086;28;20387;-77
2021/03/23 07:15:33;;;;;;;13.85;7.40;;;;;;;2.07;100.00;94349.97;10445089;28;20100;-77
2021/03/23 07:20:33;;;;;;;15.85;9.60;;;;;;;2.43;100.00;94350.78;10448472;28;20056;-77
2021/03/23 07:25:43;;;;;;;17.13;8.67;;;;;;;2.72;100.00;94356.16;10452671;28;20035;-77
2021/03/23 07:30:48;;;;;;;17.15;8.38;;;;;;;2.64;100.00;94364.50;10451876;28;20272;-77
2021/03/23 07:35:49;;;;;;;14.80;9.27;;;;;;;2.52;100.00;94380.41;10452043;28;20039;-76
2021/03/23 07:40:53;;;;;;;18.27;9.48;;;;;;;2.44;100.00;94380.75;10488203;28;20063;-77
2021/03/23 07:46:03;;;;;;;17.77;8.68;;;;;;;2.32;100.00;94391.38;10493344;28;20068;-76
2021/03/23 07:51:19;;;;;;;15.60;9.20;;;;;;;2.25;100.00;94385.34;10493499;28;20031;-77
2021/03/23 07:56:44;;;;;;;20.25;10.32;;;;;;;2.13;100.00;94395.94;10491414;28;20029;-77
2021/03/23 08:01:45;;;;;;;18.25;9.40;;;;;;;2.12;100.00;94391.69;10492354;28;20063;-77
2021/03/23 08:07:06;;;;;;;22.75;10.90;;;;;;;2.38;100.00;94387.78;10491639;28;20060;-76
2021/03/23 08:12:31;;;;;;;18.35;9.77;;;;;;;2.53;100.00;94388.13;10489303;28;20134;-77
2021/03/23 08:18:25;;;;;;;21.10;11.02;;;;;;;2.52;100.00;94396.31;10490769;28;20094;-75
2021/03/23 08:23:46;;;;;;;14.05;9.05;;;;;;;2.47;100.00;94390.88;10424365;28;20053;-80
2021/03/23 08:29:11;;;;;;;12.10;6.93;;;;;;;2.76;100.00;94393.66;10453625;28;20090;-77
2021/03/23 08:34:29;;;;;;;6.68;4.15;;;;;;;2.79;100.00;94395.84;10448434;28;20020;-77
2021/03/23 08:40:02;;;;;;;9.75;5.38;;;;;;;2.93;100.00;94391.09;10450340;28;20040;-77
2021/03/23 08:45:15;;;;;;;7.18;4.03;;;;;;;2.89;100.00;94388.91;10447705;28;20056;-78
2021/03/23 08:50:15;;;;;;;6.78;3.55;;;;;;;2.89;100.00;94391.56;10489035;28;20073;-78
2021/03/23 08:55:27;;;;;;;5.85;3.75;;;;;;;3.01;100.00;94390.72;10489151;28;20398;-77
2021/03/23 09:00:38;;;;;;;8.80;4.28;;;;;;;3.08;100.00;94392.22;10489111;28;20741;-77
2021/03/23 09:05:53;;;;;;;8.02;4.97;;;;;;;3.31;100.00;94400.34;10486556;28;20113;-77
2021/03/23 09:11:34;;;;;;;9.43;4.80;;;;;;;3.40;100.00;94393.63;10486911;28;20045;-77
2021/03/23 09:16:55;;;;;;;7.85;4.18;;;;;;;3.32;100.00;94396.66;10451743;28;20036;-77
2021/03/23 09:21:58;;;;;;;5.70;3.75;;;;;;;3.50;100.00;94395.66;10463190;28;20059;-77
2021/03/23 09:27:00;;;;;;;8.75;4.45;;;;;;;3.30;100.00;94398.75;10487915;28;20029;-77
2021/03/23 09:32:03;;;;;;;8.95;4.63;;;;;;;3.66;100.00;94399.44;10483594;28;20027;-77
2021/03/23 09:37:32;;;;;;;10.32;5.80;;;;;;;4.03;100.00;94394.50;10488110;28;20024;-78
2021/03/23 09:42:35;;;;;;;;;;;;;;;4.41;100.00;94400.13;10484792;28;20132;-77
2021/03/23 09:47:41;;;;;;;9.35;4.80;;;;;;;4.48;100.00;94395.47;10484065;28;19909;-76
2021/03/23 09:52:42;;;;;;;7.78;4.55;;;;;;;4.77;100.00;94398.00;10492894;28;20024;-77
2021/03/23 09:57:52;;;;;;;8.20;4.75;;;;;;;6.07;100.00;94401.13;10486858;28;20542;-78
2021/03/23 10:02:52;;;;;;;7.18;4.18;;;;;;;6.92;87.41;94390.56;10486059;28;20044;-78
2021/03/23 10:08:09;;;;;;;7.65;4.85;;;;;;;6.81;84.50;94397.72;10485921;28;20505;-78
2021/03/23 10:13:28;;;;;;;7.43;4.28;;;;;;;6.49;85.35;94397.75;10486509;28;20181;-76
2021/03/23 10:18:30;;;;;;;6.68;4.55;;;;;;;6.09;86.85;94397.16;10486640;28;20081;-77
2021/03/23 10:23:31;;;;;;;7.82;4.28;;;;;;;5.73;84.35;94396.75;10486014;28;20191;-77
2021/03/23 10:28:35;;;;;;;10.40;5.40;;;;;;;5.43;99.11;94399.91;10485518;28;20237;-76
2021/03/23 10:33:39;;;;;;;10.02;4.72;;;;;;;5.02;94.69;94404.72;10485792;28;20024;-77
2021/03/23 10:38:45;;;;;;;12.43;5.53;;;;;;;4.78;100.00;94403.06;10485585;28;20044;-77
2021/03/23 10:43:48;;;;;;;11.70;6.15;;;;;;;4.43;100.00;94417.47;10465444;28;20033;-77
2021/03/23 10:48:49;;;;;;;12.73;6.78;;;;;;;3.91;100.00;94415.81;10444005;28;20033;-77
2021/03/23 10:54:08;;;;;;;13.80;6.57;;;;;;;3.60;100.00;94414.47;10454919;28;20024;-77
2021/03/23 10:59:09;;;;;;;10.52;6.07;;;;;;;3.40;100.00;94417.53;10477277;28;20090;-77
2021/03/23 11:04:18;;;;;;;14.27;6.30;;;;;;;3.20;100.00;94418.72;10489447;28;20048;-78
2021/03/23 11:09:20;;;;;;;12.35;6.10;;;;;;;3.07;100.00;94419.00;10493806;28;20040;-78
2021/03/23 11:14:20;;;;;;;10.60;5.57;;;;;;;3.18;100.00;94423.50;10478474;28;20021;-77
2021/03/23 11:19:30;;;;;;;10.90;6.32;;;;;;;3.02;100.00;94418.91;10479541;28;20029;-77
2021/03/23 11:24:32;;;;;;;16.20;7.97;;;;;;;3.11;100.00;94422.78;10482033;28;20020;-77
2021/03/23 11:29:33;;;;;;;14.15;6.43;;;;;;;3.24;100.00;94409.25;10469145;28;20568;-76
2021/03/23 11:34:34;;;;;;;14.20;6.78;;;;;;;3.34;100.00;94415.81;10482420;28;20048;-76
2021/03/23 11:39:34;;;;;;;14.85;7.60;;;;;;;3.85;100.00;94419.44;10474569;28;20020;-78
2021/03/23 11:44:43;;;;;;;14.83;8.00;;;;;;;4.28;100.00;94414.56;10471194;28;20024;-77
2021/03/23 11:50:02;;;;;;;12.40;7.10;;;;;;;5.21;100.00;94402.59;10471968;28;20297;-78
2021/03/23 11:55:08;;;;;;;14.57;6.63;;;;;;;5.34;87.15;94398.75;10476023;28;20024;-77
2021/03/23 12:00:12;;;;;;;10.13;5.93;;;;;;;5.84;87.87;94410.22;10490326;28;20020;-78
2021/03/23 12:05:14;;;;;;;12.60;6.57;;;;;;;6.47;85.39;94397.19;10482292;28;20080;-78
2021/03/23 12:10:21;;;;;;;11.60;6.50;;;;;;;5.72;84.92;94399.69;10490456;28;20032;-78
2021/03/23 12:15:43;;;;;;;11.57;6.67;;;;;;;6.15;86.36;94403.34;10492041;28;20118;-78
2021/03/23 12:20:44;;;;;;;12.93;7.60;;;;;;;5.25;80.04;94401.84;10455713;28;20029;-78
2021/03/23 12:25:45;;;;;;;15.98;8.68;;;;;;;5.16;94.17;94403.31;10450654;28;20796;-78
2021/03/23 12:30:45;;;;;;;15.20;9.75;;;;;;;5.46;97.24;94392.22;10451448;28;20108;-78
2021/03/23 12:35:46;;;;;;;14.80;7.68;;;;;;;5.72;81.43;94389.84;10450873;28;20017;-78
2021/03/23 12:40:46;;;;;;;14.82;8.18;;;;;;;5.68;83.17;94382.56;10449570;28;20143;-78
2021/03/23 12:45:47;;;;;;;17.17;9.00;;;;;;;5.49;91.32;94382.91;10450088;28;20089;-78
2021/03/23 12:50:47;;;;;;;19.92;10.00;;;;;;;5.47;90.57;94382.38;10465553;28;20498;-77
2021/03/23 12:55:50;;;;;;;14.23;9.00;;;;;;;5.47;81.39;94377.06;10484651;28;20029;-77
2021/03/23 13:00:51;;;;;;;20.52;9.68;;;;;;;5.28;85.78;94377.34;10449084;28;20381;-78
2021/03/23 13:05:53;;;;;;;15.05;9.05;;;;;;;5.10;92.11;94391.00;10449254;28;20045;-78
2021/03/23 13:10:59;;;;;;;17.23;10.27;;;;;;;4.86;94.66;94383.22;10448931;28;20028;-78
2021/03/23 13:16:01;;;;;;;22.27;10.13;;;;;;;4.81;94.36;94383.16;10447579;28;20021;-78
2021/03/23 13:21:04;;;;;;;18.02;9.95;;;;;;;4.48;95.65;94392.81;10449877;28;20044;-78
2021/03/23 13:26:06;;;;;;;14.48;8.95;;;;;;;4.13;100.00;94391.19;10449800;28;20032;-78
2021/03/23 13:31:06;;;;;;;20.05;11.73;;;;;;;3.94;100.00;94393.28;10449980;28;20056;-78
2021/03/23 13:36:21;;;;;;;15.60;8.75;;;;;;;3.71;100.00;94392.34;10449309;28;20111;-78
2021/03/23 13:41:24;;;;;;;17.75;8.82;;;;;;;3.83;100.00;94400.25;10449545;28;20383;-78
2021/03/23 13:46:36;;;;;;;22.10;12.50;;;;;;;3.46;100.00;94397.19;10449230;28;20021;-78
2021/03/23 13:51:37;;;;;;;27.10;13.55;;;;;;;3.14;100.00;94394.97;10448969;28;20395;-78
2021/03/23 13:56:37;;;;;;;27.83;15.38;;;;;;;2.56;100.00;94394.81;10446507;28;20031;-78
2021/03/23 14:01:38;;;;;;;28.15;15.38;;;;;;;2.42;100.00;94401.41;10444016;28;20031;-78
2021/03/23 14:06:38;;;;;;;30.45;17.00;;;;;;;2.41;100.00;94399.78;10447295;28;20214;-78
2021/03/23 14:11:39;;;;;;;28.85;15.55;;;;;;;2.53;100.00;94403.25;10446665;28;20033;-78
2021/03/23 14:16:39;;;;;;;27.47;15.50;;;;;;;1.95;100.00;94394.97;10448585;28;20025;-78
2021/03/23 14:21:39;;;;;;;25.73;15.77;;;;;;;1.00;100.00;94404.41;10448741;28;20021;-78
2021/03/23 14:26:41;;;;;;;27.20;16.50;;;;;;;1.17;100.00;94408.09;10448939;28;20017;-78
2021/03/23 14:31:41;;;;;;;25.92;16.48;;;;;;;1.35;100.00;94415.19;10446834;28;20013;-78
2021/03/23 14:36:44;;;;;;;35.73;18.73;;;;;;;1.31;100.00;94406.09;10485769;28;20028;-78
2021/03/23 14:41:46;;;;;;;30.70;17.40;;;;;;;0.59;100.00;94409.31;10449794;28;20282;-77
2021/03/23 14:46:47;;;;;;;32.13;17.95;;;;;;;0.26;100.00;94420.22;10443342;28;20044;-77
2021/03/23 14:51:48;;;;;;;33.95;19.73;;;;;;;-0.03;100.00;94411.91;10443792;28;20029;-77
2021/03/23 14:56:50;;;;;;;41.63;21.63;;;;;;;-0.28;100.00;94410.06;10446985;28;20364;-78
2021/03/23 15:01:51;;;;;;;33.67;17.33;;;;;;;-0.28;100.00;94404.78;10448225;28;20057;-78
2021/03/23 15:06:52;;;;;;;38.67;19.70;;;;;;;-0.31;100.00;94413.09;10449080;28;20049;-77
2021/03/23 15:11:52;;;;;;;35.47;18.60;;;;;;;-0.30;100.00;94401.53;10448299;28;20029;-77
2021/03/23 15:16:53;;;;;;;36.58;19.65;;;;;;;-0.14;100.00;94404.66;10447953;28;20283;-77
2021/03/23 15:21:53;;;;;;;34.77;19.77;;;;;;;-0.14;100.00;94400.22;10448247;28;20024;-77
2021/03/23 15:26:53;;;;;;;30.97;18.33;;;;;;;-0.32;100.00;94402.75;10455850;28;20319;-77
2021/03/23 15:31:57;;;;;;;33.47;16.87;;;;;;;-0.29;100.00;94408.44;10476984;28;20259;-77
2021/03/23 15:36:58;;;;;;;25.13;15.15;;;;;;;-0.29;100.00;94413.72;10447494;28;20795;-77
2021/03/23 15:42:06;;;;;;;28.73;15.32;;;;;;;-0.21;100.00;94420.56;10455554;28;20143;-77
2021/03/23 15:47:06;;;;;;;26.92;14.88;;;;;;;0.02;100.00;94430.56;10493585;28;20036;-78
2021/03/23 15:52:08;;;;;;;32.23;14.73;;;;;;;0.09;100.00;94433.94;10495022;28;20021;-79
2021/03/23 15:57:09;;;;;;;25.33;14.65;;;;;;;-0.09;100.00;94439.97;10487384;28;20279;-77
2021/03/23 16:02:12;;;;;;;44.05;17.63;;;;;;;0.08;100.00;94450.03;10486384;28;20402;-78
2021/03/23 16:07:22;;;;;;;30.45;14.45;;;;;;;0.10;100.00;94443.50;10491155;28;20131;-78
2021/03/23 16:12:23;;;;;;;37.92;16.55;;;;;;;-0.29;100.00;94455.13;10490759;28;20028;-78
2021/03/23 16:17:28;;;;;;;34.45;16.92;;;;;;;-0.80;100.00;94448.91;10490734;28;20033;-77
2021/03/23 16:22:28;;;;;;;35.67;19.77;;;;;;;-1.04;100.00;94459.13;10474685;28;20032;-77
2021/03/23 16:27:28;;;;;;;38.97;20.43;;;;;;;-1.10;100.00;94466.03;10485520;28;20441;-77
2021/03/23 16:32:29;;;;;;;46.47;20.20;;;;;;;-1.22;100.00;94473.75;10496610;28;20772;-78
2021/03/23 16:37:31;;;;;;;42.00;21.07;;;;;;;-1.15;100.00;94479.03;10496352;28;20026;-77
2021/03/23 16:42:32;;;;;;;39.97;20.75;;;;;;;-1.12;100.00;94481.25;10480001;28;20291;-78
2021/03/23 16:47:33;;;;;;;35.70;18.88;;;;;;;-1.11;100.00;94477.59;10453841;28;20033;-77
2021/03/23 16:52:35;;;;;;;41.63;20.88;;;;;;;-1.06;100.00;94479.59;10463186;28;20024;-77
2021/03/23 16:57:36;;;;;;;42.15;20.75;;;;;;;-0.94;100.00;94480.59;10483838;28;20028;-77
2021/03/23 17:02:36;;;;;;;39.83;18.67;;;;;;;-1.02;100.00;94485.28;10475384;28;20440;-77
2021/03/23 17:07:36;;;;;;;36.92;19.35;;;;;;;-1.15;100.00;94497.50;10461593;28;20105;-78
2021/03/23 17:12:37;;;;;;;44.17;19.97;;;;;;;-1.08;100.00;94497.47;10493392;28;20795;-77
2021/03/23 17:17:38;;;;;;;43.10;20.75;;;;;;;-0.99;100.00;94498.06;10493904;28;20145;-78
2021/03/23 17:22:38;;;;;;;36.38;19.55;;;;;;;-1.19;100.00;94492.84;10495910;28;20072;-77
2021/03/23 17:27:39;;;;;;;36.63;19.60;;;;;;;-1.14;100.00;94509.66;10495873;28;20481;-77
2021/03/23 17:32:40;;;;;;;34.07;17.47;;;;;;;-1.30;100.00;94499.53;10496224;28;20033;-79
2021/03/23 17:37:40;;;;;;;32.40;17.73;;;;;;;-1.37;100.00;94512.72;10486561;28;20070;-78
2021/03/23 17:42:41;;;;;;;37.65;17.92;;;;;;;-1.33;100.00;94510.50;10462816;28;20039;-78
2021/03/23 17:47:41;;;;;;;39.47;21.20;;;;;;;-1.28;100.00;94505.44;10476957;28;20024;-76
2021/03/23 17:52:41;;;;;;;36.20;20.37;;;;;;;-1.42;100.00;94509.91;10475888;28;20028;-76
2021/03/23 17:57:46;;;;;;;40.33;21.63;;;;;;;-1.39;100.00;94502.38;10458365;28;20033;-77
2021/03/23 18:02:46;;;;;;;34.72;19.55;;;;;;;-1.39;100.00;94506.88;10461094;28;20108;-78
2021/03/23 18:07:47;;;;;;;36.70;19.92;;;;;;;-1.34;100.00;94501.78;10493206;28;20151;-78
2021/03/23 18:12:48;;;;;;;41.38;21.02;;;;;;;-1.28;100.00;94494.91;10493075;28;20379;-78
2021/03/23 18:17:48;;;;;;;31.52;19.65;;;;;;;-1.32;100.00;94491.03;10491288;28;20036;-77
2021/03/23 18:22:50;;;;;;;39.40;20.67;;;;;;;-1.22;100.00;94491.41;10487189;28;20032;-77
2021/03/23 18:27:50;;;;;;;35.92;20.67;;;;;;;-1.05;100.00;94489.97;10470110;28;20131;-77
2021/03/23 18:32:52;;;;;;;34.47;17.88;;;;;;;-0.82;100.00;94478.13;10463613;28;20027;-77
2021/03/23 18:37:52;;;;;;;34.25;17.55;;;;;;;-0.74;100.00;94475.28;10468162;28;20017;-77
2021/03/23 18:42:53;;;;;;;30.45;17.30;;;;;;;-0.61;100.00;94468.31;10467473;28;20028;-78
2021/03/23 18:47:55;;;;;;;28.02;16.77;;;;;;;-0.57;100.00;94477.44;10478869;28;20033;-77
2021/03/23 18:52:58;;;;;;;26.35;15.45;;;;;;;-0.44;100.00;94466.00;10470908;28;20095;-78
2021/03/23 18:57:59;;;;;;;28.42;16.23;;;;;;;-0.41;100.00;94473.50;10464542;28;20060;-77
2021/03/23 19:03:00;;;;;;;29.35;17.20;;;;;;;-0.54;100.00;94467.25;10467017;28;20151;-78
2021/03/23 19:08:00;;;;;;;23.75;15.63;;;;;;;-0.53;100.00;94465.41;10471644;28;20056;-78
2021/03/23 19:13:01;;;;;;;23.00;14.47;;;;;;;-0.43;100.00;94467.59;10469254;28;20035;-77
2021/03/23 19:18:02;;;;;;;20.63;14.73;;;;;;;-0.41;100.00;94466.38;10482736;28;20853;-78
2021/03/23 19:23:07;;;;;;;23.73;14.95;;;;;;;-0.29;100.00;94461.25;10500004;28;20025;-78
2021/03/23 19:28:08;;;;;;;24.92;14.35;;;;;;;-0.28;100.00;94460.22;10495471;28;20552;-76
2021/03/23 19:33:13;;;;;;;24.38;15.15;;;;;;;-0.31;100.00;94458.00;10492199;28;20131;-76
2021/03/23 19:38:15;;;;;;;19.35;13.88;;;;;;;-0.24;100.00;94453.50;10490330;28;20039;-77
2021/03/23 19:43:22;;;;;;;24.38;14.85;;;;;;;-0.25;100.00;94461.59;10459536;28;20024;-76
2021/03/23 19:48:23;;;;;;;22.52;13.25;;;;;;;-0.21;100.00;94462.81;10453061;28;20140;-78
2021/03/23 19:53:24;;;;;;;25.90;14.50;;;;;;;0.03;100.00;94452.50;10453064;28;20029;-78
2021/03/23 19:58:24;;;;;;;23.35;12.88;;;;;;;0.01;100.00;94449.28;10455574;28;20025;-76
2021/03/23 20:03:24;;;;;;;17.63;12.33;;;;;;;0.14;100.00;94443.88;10488377;28;20763;-76
2021/03/23 20:08:25;;;;;;;20.70;11.50;;;;;;;0.33;100.00;94444.75;10492419;28;20036;-76
2021/03/23 20:13:26;;;;;;;20.73;11.10;;;;;;;0.25;100.00;94434.44;10464434;28;20021;-77
2021/03/23 20:18:27;;;;;;;22.77;11.55;;;;;;;0.31;100.00;94446.81;10449616;28;20275;-76
2021/03/23 20:23:37;;;;;;;19.58;12.02;;;;;;;0.51;100.00;94436.84;10475151;28;20397;-76
2021/03/23 20:28:38;;;;;;;24.00;11.52;;;;;;;0.64;100.00;94438.56;10492142;28;20785;-76
2021/03/23 20:33:38;;;;;;;21.23;12.32;;;;;;;0.79;100.00;94440.06;10458247;28;20021;-77
2021/03/23 20:38:39;;;;;;;20.20;11.50;;;;;;;0.88;100.00;94438.75;10447032;28;20090;-77
2021/03/23 20:43:39;;;;;;;17.88;11.00;;;;;;;0.73;100.00;94431.16;10457504;28;20016;-77
2021/03/23 20:48:39;;;;;;;23.00;11.15;;;;;;;0.85;100.00;94424.13;10486973;28;20511;-77
2021/03/23 20:53:40;;;;;;;21.13;11.43;;;;;;;0.65;100.00;94429.59;10486409;28;20028;-77
2021/03/23 20:58:40;;;;;;;22.80;10.95;;;;;;;0.44;100.00;94425.53;10488076;28;20074;-76
2021/03/23 21:03:41;;;;;;;20.08;11.20;;;;;;;0.47;100.00;94417.16;10483759;28;20045;-78
2021/03/23 21:08:42;;;;;;;26.30;10.68;;;;;;;0.20;100.00;94415.81;10488211;28;20034;-77
2021/03/23 21:13:54;;;;;;;19.23;10.25;;;;;;;0.18;100.00;94413.34;10487007;28;20032;-77
2021/03/23 21:18:56;;;;;;;17.15;10.48;;;;;;;0.09;100.00;94409.38;10486927;28;20028;-77
2021/03/23 21:23:57;;;;;;;15.30;10.27;;;;;;;0.00;100.00;94406.19;10486708;28;20684;-78
2021/03/23 21:28:57;;;;;;;22.05;10.27;;;;;;;0.15;100.00;94404.03;10486794;28;20032;-78
2021/03/23 21:33:58;;;;;;;22.90;10.38;;;;;;;0.16;100.00;94399.56;10485649;28;20070;-78
2021/03/23 21:38:59;;;;;;;20.50;9.57;;;;;;;0.17;100.00;94401.19;10484840;28;20854;-78
2021/03/23 21:44:00;;;;;;;21.90;10.15;;;;;;;0.28;100.00;94399.63;10485484;28;20028;-77
2021/03/23 21:49:01;;;;;;;16.63;9.63;;;;;;;0.38;100.00;94410.56;10487788;28;20055;-77
2021/03/23 21:54:05;;;;;;;19.73;9.20;;;;;;;0.32;100.00;94398.19;10458514;28;20099;-77
2021/03/23 21:59:07;;;;;;;13.68;8.52;;;;;;;0.17;100.00;94407.25;10445396;28;20047;-77
2021/03/23 22:04:10;;;;;;;17.77;9.40;;;;;;;0.23;100.00;94399.50;10443686;28;20110;-77
2021/03/23 22:09:16;;;;;;;19.45;9.07;;;;;;;0.34;100.00;94404.06;10444352;28;20127;-78
2021/03/23 22:14:17;;;;;;;17.67;7.97;;;;;;;0.40;100.00;94392.63;10454879;28;20437;-77
2021/03/23 22:19:17;;;;;;;14.40;7.93;;;;;;;0.32;100.00;94393.72;10482825;28;20032;-77
2021/03/23 22:24:18;;;;;;;17.23;8.33;;;;;;;0.38;100.00;94389.41;10484403;28;20086;-77
2021/03/23 22:29:19;;;;;;;13.77;7.25;;;;;;;0.41;100.00;94378.38;10485016;28;20706;-77
2021/03/23 22:34:19;;;;;;;14.90;7.03;;;;;;;0.58;100.00;94377.81;10485508;28;20027;-79
2021/03/23 22:39:19;;;;;;;13.17;7.00;;;;;;;0.62;100.00;94376.34;10484367;28;20270;-77
2021/03/23 22:44:20;;;;;;;14.60;7.33;;;;;;;0.64;100.00;94363.72;10467863;28;20029;-77
2021/03/23 22:49:20;;;;;;;12.82;7.35;;;;;;;0.61;100.00;94369.44;10443014;28;20279;-78
2021/03/23 22:54:21;;;;;;;16.02;8.60;;;;;;;0.42;100.00;94373.91;10442364;28;20028;-79
2021/03/23 22:59:21;;;;;;;14.07;8.10;;;;;;;0.33;100.00;94363.59;10462574;28;20029;-78
2021/03/23 23:04:21;;;;;;;12.43;6.67;;;;;;;0.27;100.00;94363.69;10488033;28;20402;-79
2021/03/23 23:09:22;;;;;;;15.80;7.35;;;;;;;0.04;100.00;94346.59;10492751;28;20061;-79